createdAt,value
2018-06-05T00:02:27.335Z,85.50
2018-06-05T00:04:55.516Z,85.10
2018-06-05T00:07:23.845Z,85.30
2018-06-05T00:09:52.014Z,85.10
2018-06-05T00:12:20.213Z,85.10
2018-06-05T00:14:48.404Z,85.10
2018-06-05T00:17:16.590Z,85.10
2018-06-05T00:19:44.782Z,85.10
2018-06-05T00:22:12.991Z,85.40
2018-06-05T00:24:41.184Z,85.50
2018-06-05T00:27:09.339Z,85.50
2018-06-05T00:29:37.522Z,85.70
2018-06-05T00:32:05.814Z,85.70
2018-06-05T00:34:33.979Z,85.60
2018-06-05T00:37:02.156Z,85.60
2018-06-05T00:39:30.308Z,85.80
2018-06-05T00:41:58.499Z,86.10
2018-06-05T00:44:26.723Z,85.80
2018-06-05T00:46:55.139Z,85.70
2018-06-05T00:49:23.326Z,85.50
2018-06-05T00:52:02.850Z,85.10
2018-06-05T00:54:31.009Z,85.10
2018-06-05T00:56:59.194Z,85.00
2018-06-05T00:59:27.574Z,84.90
2018-06-05T01:01:55.738Z,84.90
2018-06-05T01:04:23.900Z,85.10
2018-06-05T01:06:52.093Z,85.20
2018-06-05T01:09:20.273Z,85.00
2018-06-05T01:11:48.458Z,85.00
2018-06-05T01:16:44.565Z,85.20
2018-06-05T01:19:12.746Z,84.50
2018-06-05T01:21:40.950Z,84.50
2018-06-05T01:24:09.153Z,84.40
2018-06-05T01:26:37.335Z,84.50
2018-06-05T01:29:05.529Z,84.60
2018-06-05T01:31:33.714Z,84.90
2018-06-05T01:34:01.895Z,84.50
2018-06-05T01:36:30.173Z,84.40
2018-06-05T01:38:58.352Z,84.60
2018-06-05T01:41:26.554Z,84.50
2018-06-05T01:43:54.788Z,84.60
2018-06-05T01:46:22.965Z,84.40
2018-06-05T01:48:51.152Z,84.50
2018-06-05T01:51:19.341Z,84.50
2018-06-05T01:53:47.530Z,84.40
2018-06-05T01:56:15.793Z,84.30
2018-06-05T01:58:44.011Z,85.40
2018-06-05T02:01:12.201Z,84.50
2018-06-05T02:03:40.358Z,84.50
2018-06-05T02:06:08.577Z,85.40
2018-06-05T02:08:36.764Z,86.10
2018-06-05T02:11:04.962Z,85.70
2018-06-05T02:13:33.140Z,85.40
2018-06-05T02:16:01.357Z,85.30
2018-06-05T02:18:29.546Z,85.90
2018-06-05T02:20:57.758Z,86.20
2018-06-05T02:23:25.959Z,86.20
2018-06-05T02:25:54.160Z,86.20
2018-06-05T02:28:22.360Z,86.30
2018-06-05T02:30:50.539Z,86.40
2018-06-05T02:33:18.745Z,86.70
2018-06-05T02:35:47.709Z,86.30
2018-06-05T02:38:15.875Z,86.30
2018-06-05T02:40:44.065Z,86.60
2018-06-05T02:43:12.232Z,86.50
2018-06-05T02:45:40.402Z,86.10
2018-06-05T02:48:08.589Z,86.10
2018-06-05T02:50:36.806Z,86.20
2018-06-05T02:53:05.049Z,86.30
2018-06-05T02:55:33.216Z,86.50
2018-06-05T02:58:01.532Z,86.50
2018-06-05T03:00:29.751Z,86.40
2018-06-05T03:02:57.918Z,86.30
2018-06-05T03:05:26.176Z,86.40
2018-06-05T03:07:54.913Z,86.50
2018-06-05T03:10:23.090Z,86.40
2018-06-05T03:12:51.302Z,87.30
2018-06-05T03:15:19.473Z,86.30
2018-06-05T03:17:47.668Z,86.30
2018-06-05T03:20:15.870Z,86.10
2018-06-05T03:22:44.048Z,86.40
2018-06-05T03:25:12.255Z,86.60
2018-06-05T03:27:40.436Z,86.60
2018-06-05T03:30:08.612Z,87.00
2018-06-05T03:32:36.783Z,86.70
2018-06-05T03:35:05.258Z,86.60
2018-06-05T03:37:33.479Z,87.00
2018-06-05T03:40:01.662Z,87.00
2018-06-05T03:42:29.838Z,87.00
2018-06-05T03:44:58.046Z,86.70
2018-06-05T03:47:26.192Z,86.80
2018-06-05T03:49:54.376Z,86.80
2018-06-05T03:52:22.522Z,86.90
2018-06-05T03:54:50.717Z,87.10
2018-06-05T03:57:18.910Z,86.80
2018-06-05T03:59:47.101Z,87.30
2018-06-05T04:02:15.272Z,87.00
2018-06-05T04:04:43.438Z,86.30
2018-06-05T04:07:11.614Z,86.40
2018-06-05T04:09:39.817Z,86.70
2018-06-05T04:12:08.029Z,86.90
2018-06-05T04:14:36.179Z,86.80
2018-06-05T04:17:04.399Z,87.10
2018-06-05T04:19:32.611Z,87.10
2018-06-05T04:22:00.777Z,87.10
2018-06-05T04:24:28.951Z,86.50
2018-06-05T04:26:57.165Z,86.40
2018-06-05T04:29:25.411Z,86.10
2018-06-05T04:31:53.598Z,86.00
2018-06-05T04:34:21.772Z,86.50
2018-06-05T04:36:50.004Z,85.60
2018-06-05T04:39:18.177Z,85.90
2018-06-05T04:41:46.423Z,85.30
2018-06-05T04:44:14.582Z,85.70
2018-06-05T04:46:42.745Z,85.50
2018-06-05T04:49:10.962Z,85.80
2018-06-05T04:51:39.165Z,85.80
2018-06-05T04:54:07.345Z,86.10
2018-06-05T04:56:35.540Z,85.70
2018-06-05T04:59:03.706Z,85.50
2018-06-05T05:01:31.884Z,85.40
2018-06-05T05:04:00.093Z,85.70
2018-06-05T05:06:28.260Z,86.20
2018-06-05T05:08:56.474Z,86.50
2018-06-05T05:11:24.646Z,86.80
2018-06-05T05:13:52.837Z,87.40
2018-06-05T05:16:21.032Z,86.70
2018-06-05T05:18:49.290Z,86.80
2018-06-05T05:21:19.836Z,87.10
2018-06-05T05:23:48.047Z,87.30
2018-06-05T05:26:16.241Z,87.30
2018-06-05T05:28:44.406Z,87.20
2018-06-05T05:31:12.570Z,87.30
2018-06-05T05:33:40.728Z,87.60
2018-06-05T05:36:08.866Z,87.50
2018-06-05T05:38:37.014Z,87.50
2018-06-05T05:41:05.178Z,87.10
2018-06-05T05:43:33.301Z,86.80
2018-06-05T05:46:01.860Z,87.00
2018-06-05T05:48:30.317Z,86.70
2018-06-05T05:50:58.505Z,86.40
2018-06-05T05:53:26.649Z,85.70
2018-06-05T05:55:54.803Z,85.70
2018-06-05T05:58:23.136Z,86.20
2018-06-05T06:00:51.406Z,85.80
2018-06-05T06:03:19.548Z,85.80
2018-06-05T06:05:47.709Z,85.50
2018-06-05T06:08:15.828Z,85.60
2018-06-05T06:10:43.999Z,85.00
2018-06-05T06:13:12.128Z,85.40
2018-06-05T06:15:40.265Z,85.20
2018-06-05T06:18:08.425Z,85.70
2018-06-05T06:20:36.593Z,85.00
2018-06-05T06:23:04.920Z,85.00
2018-06-05T06:25:33.085Z,84.70
2018-06-05T06:28:01.232Z,85.00
2018-06-05T06:30:29.664Z,85.00
2018-06-05T06:32:57.854Z,84.60
2018-06-05T06:35:26.339Z,83.80
2018-06-05T06:37:54.483Z,84.20
2018-06-05T06:40:22.800Z,84.00
2018-06-05T06:42:50.930Z,84.20
2018-06-05T06:45:19.076Z,84.20
2018-06-05T06:47:48.098Z,83.90
2018-06-05T06:50:16.242Z,84.10
2018-06-05T06:52:44.364Z,83.60
2018-06-05T06:55:12.502Z,83.40
2018-06-05T06:57:40.636Z,83.40
2018-06-05T07:00:08.772Z,83.00
2018-06-05T07:02:36.921Z,82.70
2018-06-05T07:05:05.065Z,82.90
2018-06-05T07:07:33.204Z,82.60
2018-06-05T07:10:01.370Z,82.50
2018-06-05T07:12:29.546Z,82.70
2018-06-05T07:14:57.692Z,82.10
2018-06-05T07:17:26.213Z,82.00
2018-06-05T07:19:54.357Z,81.50
2018-06-05T07:22:22.491Z,81.90
2018-06-05T07:24:50.652Z,81.80
2018-06-05T07:27:18.800Z,81.70
2018-06-05T07:29:46.935Z,82.00
2018-06-05T07:32:15.097Z,81.50
2018-06-05T07:34:43.229Z,81.00
2018-06-05T07:37:11.360Z,81.10
2018-06-05T07:39:39.525Z,81.40
2018-06-05T07:42:07.657Z,81.30
2018-06-05T07:44:35.809Z,80.80
2018-06-05T07:47:03.973Z,80.50
2018-06-05T07:49:32.105Z,80.80
2018-06-05T07:52:01.248Z,81.10
2018-06-05T07:54:29.408Z,81.10
2018-06-05T07:56:57.585Z,80.90
2018-06-05T07:59:25.766Z,81.00
2018-06-05T08:01:53.924Z,80.40
2018-06-05T08:04:22.088Z,80.40
2018-06-05T08:06:50.184Z,80.20
2018-06-05T08:09:18.349Z,80.30
2018-06-05T08:11:46.529Z,80.00
2018-06-05T08:14:14.611Z,80.00
2018-06-05T08:16:42.788Z,79.30
2018-06-05T08:19:10.937Z,79.60
2018-06-05T08:21:39.113Z,79.30
2018-06-05T08:24:07.268Z,79.50
2018-06-05T08:26:46.789Z,79.60
2018-06-05T08:29:14.948Z,79.20
2018-06-05T08:31:43.090Z,80.00
2018-06-05T08:34:11.229Z,80.50
2018-06-05T08:36:39.407Z,79.40
2018-06-05T08:39:08.141Z,78.80
2018-06-05T08:41:42.766Z,79.40
2018-06-05T08:44:10.890Z,78.70
2018-06-05T08:46:39.056Z,78.60
2018-06-05T08:49:07.212Z,77.90
2018-06-05T08:51:35.363Z,77.40
2018-06-05T08:54:03.525Z,76.80
2018-06-05T09:14:45.208Z,79.50
2018-06-05T09:17:13.345Z,80.10
2018-06-05T09:19:41.474Z,79.50
2018-06-05T09:22:09.617Z,78.50
2018-06-05T09:24:37.744Z,78.20
2018-06-05T09:27:05.885Z,78.00
2018-06-05T09:29:34.036Z,78.00
2018-06-05T09:32:02.160Z,77.40
2018-06-05T09:34:30.304Z,76.80
2018-06-05T09:36:58.469Z,76.70
2018-06-05T09:39:26.629Z,76.00
2018-06-05T09:41:54.774Z,76.20
2018-06-05T09:44:22.933Z,75.50
2018-06-05T09:49:18.967Z,75.40
2018-06-05T09:51:47.110Z,75.00
2018-06-05T09:54:15.257Z,76.50
2018-06-05T09:56:43.410Z,75.40
2018-06-05T09:59:11.824Z,74.80
2018-06-05T10:01:39.954Z,74.60
2018-06-05T10:04:08.096Z,74.70
2018-06-05T10:06:36.244Z,75.10
2018-06-05T10:09:05.891Z,74.90
2018-06-05T10:11:33.963Z,74.10
2018-06-05T10:14:08.506Z,73.30
2018-06-05T10:16:36.597Z,73.90
2018-06-05T10:19:04.802Z,72.90
2018-06-05T10:21:32.953Z,72.90
2018-06-05T10:24:01.078Z,72.20
2018-06-05T10:26:29.196Z,72.80
2018-06-05T10:28:57.545Z,71.90
2018-06-05T10:31:25.683Z,72.00
2018-06-05T10:33:53.832Z,72.30
2018-06-05T10:36:21.995Z,72.20
2018-06-05T10:38:50.131Z,72.90
2018-06-05T10:41:18.263Z,71.40
2018-06-05T10:43:46.420Z,70.60
2018-06-05T10:46:14.568Z,71.10
2018-06-05T10:48:42.704Z,71.50
2018-06-05T10:51:10.861Z,71.30
2018-06-05T10:53:39.044Z,70.40
2018-06-05T10:56:07.153Z,70.00
2018-06-05T10:58:35.301Z,69.70
2018-06-05T11:01:03.456Z,69.50
2018-06-05T11:03:31.614Z,69.50
2018-06-05T11:05:59.760Z,69.20
2018-06-05T11:08:27.900Z,69.20
2018-06-05T11:10:56.037Z,69.60
2018-06-05T11:13:24.175Z,68.40
2018-06-05T11:15:52.321Z,68.70
2018-06-05T11:18:20.536Z,69.50
2018-06-05T11:20:48.628Z,69.70
2018-06-05T11:23:16.777Z,68.80
2018-06-05T11:25:44.913Z,68.40
2018-06-05T11:28:13.044Z,68.40
2018-06-05T11:30:41.327Z,67.70
2018-06-05T11:33:09.457Z,68.30
2018-06-05T11:35:37.602Z,68.40
2018-06-05T11:38:05.772Z,67.90
2018-06-05T11:40:33.918Z,66.70
2018-06-05T11:43:02.039Z,66.50
2018-06-05T11:45:30.184Z,66.80
2018-06-05T11:47:58.329Z,68.30
2018-06-05T11:50:26.470Z,67.20
2018-06-05T11:52:54.615Z,66.70
2018-06-05T11:55:22.751Z,65.90
2018-06-05T11:57:50.888Z,66.20
2018-06-05T12:00:19.052Z,66.10
2018-06-05T12:02:47.253Z,66.50
2018-06-05T12:05:15.414Z,65.70
2018-06-05T12:07:43.565Z,65.00
2018-06-05T12:10:11.691Z,64.20
2018-06-05T12:12:39.839Z,65.60
2018-06-05T12:15:08.008Z,64.70
2018-06-05T12:17:36.137Z,65.20
2018-06-05T12:20:04.368Z,63.90
2018-06-05T12:22:32.508Z,65.40
2018-06-05T12:25:00.644Z,63.00
2018-06-05T12:27:29.402Z,63.60
2018-06-05T12:29:57.536Z,64.00
2018-06-05T12:32:25.672Z,63.80
2018-06-05T12:34:53.818Z,62.70
2018-06-05T12:37:21.970Z,62.50
2018-06-05T12:39:50.107Z,63.00
2018-06-05T12:42:18.272Z,62.60
2018-06-05T12:44:46.761Z,61.70
2018-06-05T12:47:14.897Z,61.10
2018-06-05T12:49:43.037Z,61.20
2018-06-05T12:52:11.186Z,61.10
2018-06-05T12:54:39.329Z,60.40
2018-06-05T12:57:07.472Z,60.00
2018-06-05T12:59:35.633Z,59.90
2018-06-05T13:02:03.858Z,60.10
2018-06-05T13:04:31.989Z,58.80
2018-06-05T13:07:00.135Z,58.80
2018-06-05T13:09:28.263Z,58.70
2018-06-05T13:11:56.397Z,58.00
2018-06-05T13:14:24.549Z,58.00
2018-06-05T13:16:52.693Z,58.20
2018-06-05T13:19:20.820Z,58.30
2018-06-05T13:24:16.864Z,58.40
2018-06-05T13:26:44.992Z,58.10
2018-06-05T13:29:13.135Z,57.60
2018-06-05T13:31:41.288Z,57.80
2018-06-05T13:34:09.428Z,56.30
2018-06-05T13:36:37.629Z,57.30
2018-06-05T13:39:08.127Z,57.40
2018-06-05T13:41:36.303Z,56.30
2018-06-05T13:44:04.691Z,57.00
2018-06-05T13:46:32.816Z,55.70
2018-06-05T13:49:00.970Z,55.70
2018-06-05T13:51:29.120Z,56.00
2018-06-05T13:53:57.259Z,55.30
2018-06-05T13:56:25.401Z,55.90
2018-06-05T13:58:53.679Z,56.00
2018-06-05T14:01:21.808Z,56.00
2018-06-05T14:03:49.953Z,54.90
2018-06-05T14:06:18.105Z,54.40
2018-06-05T14:08:46.244Z,54.60
2018-06-05T14:11:14.364Z,54.00
2018-06-05T14:13:42.560Z,53.60
2018-06-05T14:16:10.703Z,53.40
2018-06-05T14:18:38.853Z,53.10
2018-06-05T14:21:07.026Z,53.10
2018-06-05T14:23:35.161Z,53.10
2018-06-05T14:26:03.296Z,53.00
2018-06-05T14:28:31.441Z,53.70
2018-06-05T14:30:59.577Z,53.10
2018-06-05T14:33:27.696Z,53.20
2018-06-05T14:35:56.132Z,53.20
2018-06-05T14:38:24.255Z,51.90
2018-06-05T14:40:52.400Z,52.70
2018-06-05T14:43:20.566Z,52.10
2018-06-05T14:45:48.743Z,52.20
2018-06-05T14:48:16.884Z,51.50
2018-06-05T14:50:45.051Z,51.90
2018-06-05T14:53:13.199Z,52.50
2018-06-05T14:55:41.372Z,52.70
2018-06-05T14:58:09.530Z,51.90
2018-06-05T15:00:37.653Z,51.70
2018-06-05T15:03:06.061Z,52.20
2018-06-05T15:05:34.235Z,53.70
2018-06-05T15:08:02.340Z,53.20
2018-06-05T15:10:30.477Z,53.90
2018-06-05T15:12:58.630Z,54.40
2018-06-05T15:15:26.786Z,53.60
2018-06-05T15:17:54.911Z,53.60
2018-06-05T15:20:23.050Z,53.40
2018-06-05T15:22:51.632Z,53.90
2018-06-05T15:27:47.743Z,53.60
2018-06-05T15:30:15.903Z,54.40
2018-06-05T15:32:44.040Z,54.10
2018-06-05T15:35:12.199Z,54.30
2018-06-05T15:37:40.380Z,54.30
2018-06-05T15:40:08.542Z,54.40
2018-06-05T15:42:36.688Z,54.70
2018-06-05T15:45:04.877Z,54.70
2018-06-05T15:47:33.017Z,54.10
2018-06-05T15:50:01.169Z,54.00
2018-06-05T15:52:29.328Z,53.40
2018-06-05T15:54:57.470Z,53.40
2018-06-05T15:57:25.621Z,53.60
2018-06-05T15:59:53.782Z,54.40
2018-06-05T16:02:21.917Z,54.50
2018-06-05T16:04:50.067Z,53.90
2018-06-05T16:07:18.234Z,53.70
2018-06-05T16:09:46.373Z,54.30
2018-06-05T16:12:14.516Z,54.30
2018-06-05T16:14:42.686Z,55.10
2018-06-05T16:17:10.823Z,54.90
2018-06-05T16:19:38.963Z,55.80
2018-06-05T16:22:07.137Z,54.60
2018-06-05T16:24:35.268Z,55.20
2018-06-05T16:27:03.425Z,54.50
2018-06-05T16:29:31.593Z,54.70
2018-06-05T16:32:00.057Z,54.70
2018-06-05T16:34:28.925Z,55.30
2018-06-05T16:36:57.177Z,55.50
2018-06-05T16:39:27.874Z,55.90
2018-06-05T16:41:55.997Z,56.80
2018-06-05T16:44:25.163Z,56.10
2018-06-05T16:46:55.320Z,56.30
2018-06-05T16:49:23.448Z,56.90
2018-06-05T16:51:52.172Z,56.70
2018-06-05T16:54:20.300Z,56.90
2018-06-05T16:56:49.004Z,56.90
2018-06-05T16:59:17.159Z,56.10
2018-06-05T17:01:45.291Z,56.20
2018-06-05T17:04:13.483Z,57.10
2018-06-05T17:06:41.649Z,56.80
2018-06-05T17:09:09.771Z,57.40
2018-06-05T17:11:37.917Z,58.10
2018-06-05T17:14:06.070Z,58.50
2018-06-05T17:16:34.200Z,58.50
2018-06-05T17:19:02.370Z,59.30
2018-06-05T17:21:30.557Z,59.30
2018-06-05T17:23:58.696Z,59.10
2018-06-05T17:26:26.832Z,59.20
2018-06-05T17:28:55.006Z,59.10
2018-06-05T17:31:23.144Z,59.30
2018-06-05T17:36:19.185Z,59.60
2018-06-05T17:38:47.323Z,60.90
2018-06-05T17:41:15.465Z,62.30
2018-06-05T17:43:43.632Z,61.60
2018-06-05T17:46:11.765Z,62.40
2018-06-05T17:48:39.926Z,63.20
2018-06-05T17:51:08.239Z,63.70
2018-06-05T17:53:36.304Z,63.80
2018-06-05T17:56:04.656Z,64.40
2018-06-05T17:58:32.808Z,65.40
2018-06-05T18:01:00.955Z,65.80
2018-06-05T18:03:29.096Z,66.50
2018-06-05T18:05:57.245Z,66.00
2018-06-05T18:08:25.395Z,66.50
2018-06-05T18:10:53.525Z,66.30
2018-06-05T18:13:21.669Z,67.10
2018-06-05T18:15:49.796Z,67.80
2018-06-05T18:18:17.928Z,68.10
2018-06-05T18:20:46.080Z,68.40
2018-06-05T18:23:14.216Z,68.20
2018-06-05T18:25:42.361Z,68.10
2018-06-05T18:28:10.518Z,67.30
2018-06-05T18:30:38.684Z,66.70
2018-06-05T18:33:06.829Z,67.10
2018-06-05T18:35:35.001Z,67.10
2018-06-05T18:38:03.142Z,67.30
2018-06-05T18:40:31.292Z,67.60
2018-06-05T18:42:59.454Z,67.20
2018-06-05T18:45:27.602Z,66.80
2018-06-05T18:47:55.740Z,66.10
2018-06-05T18:50:23.917Z,66.10
2018-06-05T18:52:52.127Z,65.70
2018-06-05T18:55:20.223Z,66.00
2018-06-05T18:57:48.468Z,65.80
2018-06-05T19:00:17.933Z,65.70
2018-06-05T19:02:46.092Z,65.50
2018-06-05T19:05:14.236Z,66.10
2018-06-05T19:07:42.407Z,65.90
2018-06-05T19:10:12.901Z,65.80
2018-06-05T19:12:41.073Z,66.20
2018-06-05T19:15:09.219Z,66.30
2018-06-05T19:17:37.402Z,66.40
2018-06-05T19:20:05.668Z,66.40
2018-06-05T19:22:33.808Z,66.70
2018-06-05T19:25:01.970Z,67.10
2018-06-05T19:27:30.136Z,67.30
2018-06-05T19:29:58.327Z,67.60
2018-06-05T19:32:26.465Z,68.10
2018-06-05T19:34:54.630Z,68.40
2018-06-05T19:37:22.772Z,68.80
2018-06-05T19:39:50.920Z,69.30
2018-06-05T19:42:19.071Z,69.70
2018-06-05T19:44:47.227Z,69.90
2018-06-05T19:47:17.213Z,70.30
2018-06-05T19:49:45.618Z,70.70
2018-06-05T19:52:14.682Z,71.00
2018-06-05T19:54:42.860Z,71.20
2018-06-05T19:57:10.989Z,71.60
2018-06-05T19:59:40.148Z,72.00
2018-06-05T20:02:08.433Z,72.20
2018-06-05T20:04:36.658Z,72.50
2018-06-05T20:07:04.849Z,72.70
2018-06-05T20:12:01.084Z,73.90
2018-06-05T20:14:29.522Z,74.20
2018-06-05T20:16:58.089Z,74.50
2018-06-05T20:19:26.512Z,74.80
2018-06-05T20:21:54.725Z,75.00
2018-06-05T20:24:22.977Z,75.30
2018-06-05T20:26:51.177Z,75.50
2018-06-05T20:29:19.372Z,75.80
2018-06-05T20:34:15.591Z,76.80
2018-06-05T20:36:43.787Z,77.30
2018-06-05T20:39:12.038Z,77.50
2018-06-05T20:41:40.266Z,77.80
2018-06-05T20:44:08.481Z,78.10
2018-06-05T20:46:36.687Z,78.70
2018-06-05T20:49:05.200Z,79.10
2018-06-05T20:51:33.404Z,79.50
2018-06-05T20:54:01.660Z,79.60
2018-06-05T20:56:29.895Z,80.00
2018-06-05T20:58:58.105Z,80.10
2018-06-05T21:01:26.349Z,80.00
2018-06-05T21:03:54.535Z,80.40
2018-06-05T21:06:22.755Z,81.00
2018-06-05T21:08:51.008Z,81.40
2018-06-05T21:11:19.220Z,81.90
2018-06-05T21:13:47.438Z,82.40
2018-06-05T21:16:15.691Z,83.00
2018-06-05T21:18:43.897Z,83.10
2018-06-05T21:21:12.108Z,83.50
2018-06-05T21:23:40.364Z,83.70
2018-06-05T21:26:08.580Z,83.80
2018-06-05T21:28:36.798Z,83.80
2018-06-05T21:31:04.992Z,84.40
2018-06-05T21:33:33.183Z,84.80
2018-06-05T21:36:01.371Z,85.00
2018-06-05T21:38:29.912Z,85.30
2018-06-05T21:41:00.008Z,85.10
2018-06-05T21:43:28.264Z,85.40
2018-06-05T21:45:56.480Z,85.50
2018-06-05T21:48:24.673Z,85.60
2018-06-05T21:50:52.872Z,85.70
2018-06-05T21:53:21.098Z,86.70
2018-06-05T21:55:49.314Z,86.00
2018-06-05T21:58:17.524Z,86.00
2018-06-05T22:00:45.720Z,86.00
2018-06-05T22:03:13.925Z,86.40
2018-06-05T22:05:42.121Z,86.40
2018-06-05T22:08:10.432Z,86.60
2018-06-05T22:10:38.600Z,86.70
2018-06-05T22:13:06.787Z,86.70
2018-06-05T22:15:34.968Z,87.10
2018-06-05T22:18:03.163Z,87.30
2018-06-05T22:20:31.366Z,87.40
2018-06-05T22:22:59.553Z,87.60
2018-06-05T22:25:27.745Z,87.80
2018-06-05T22:27:55.954Z,88.10
2018-06-05T22:30:24.145Z,88.10
2018-06-05T22:32:52.354Z,87.90
2018-06-05T22:35:20.549Z,88.00
2018-06-05T22:37:48.779Z,88.20
